Time;durP1;ratioP1;P1;durP2;ratioP2;P2;SDS_P1;SDS_P2;PMS_P1;PMS_P2;Temp;Humidity;BMP_temperature;BMP_pressure;BME280_temperature;BME280_humidity;BME280_pressure;Samples;Min_cycle;Max_cycle;Signal;HPM_P1;HPM_P2
2021/09/10 00:01:52;;;;;;;19.40;13.50;;;;;;;13.12;100.00;99503.21;1679290;85;21936;-67
2021/09/10 00:04:19;;;;;;;17.55;13.50;;;;;;;13.15;100.00;99505.83;1679499;85;20868;-68
2021/09/10 00:06:46;;;;;;;19.10;13.65;;;;;;;13.18;100.00;99505.83;1679463;85;20912;-67
2021/09/10 00:09:14;;;;;;;19.07;14.00;;;;;;;13.22;100.00;99499.59;1679482;84;20900;-66
2021/09/10 00:11:42;;;;;;;33.10;20.90;;;;;;;13.26;100.00;99501.80;1679268;84;20956;-67
2021/09/10 00:14:11;;;;;;;39.83;25.45;;;;;;;13.26;100.00;99501.80;1679522;85;21419;-66
2021/09/10 00:16:39;;;;;;;45.67;26.80;;;;;;;13.22;100.00;99496.95;1679070;84;20936;-65
2021/09/10 00:19:07;;;;;;;43.90;27.50;;;;;;;13.18;100.00;99495.23;1679524;84;20900;-66
2021/09/10 00:21:35;;;;;;;45.28;27.95;;;;;;;13.15;100.00;99493.91;1679336;85;21483;-65
2021/09/10 00:24:03;;;;;;;45.50;29.50;;;;;;;13.10;100.00;99499.70;1679596;85;21015;-66
2021/09/10 00:26:32;;;;;;;53.63;30.72;;;;;;;13.03;100.00;99486.55;1679310;84;21464;-66
2021/09/10 00:29:01;;;;;;;47.13;29.10;;;;;;;12.97;100.00;99491.91;1679521;85;21462;-66
2021/09/10 00:31:29;;;;;;;46.98;28.20;;;;;;;12.90;100.00;99487.12;1679284;84;20975;-66
2021/09/10 00:33:57;;;;;;;49.03;27.77;;;;;;;12.84;100.00;99493.80;1679556;85;20992;-67
2021/09/10 00:36:25;;;;;;;50.08;26.37;;;;;;;12.79;100.00;99486.35;1676144;85;20980;-67
2021/09/10 00:38:53;;;;;;;43.02;26.85;;;;;;;12.73;100.00;99484.61;1674635;85;21102;-67
2021/09/10 00:41:22;;;;;;;50.40;28.85;;;;;;;12.71;100.00;99482.42;1673803;85;21442;-67
2021/09/10 00:43:50;;;;;;;45.52;26.77;;;;;;;12.66;100.00;99484.23;1672129;85;20972;-67
2021/09/10 00:46:19;;;;;;;45.98;27.13;;;;;;;12.60;100.00;99482.52;1672223;85;21427;-67
2021/09/10 00:48:47;;;;;;;43.90;27.00;;;;;;;12.54;100.00;99477.28;1672399;85;20948;-67
2021/09/10 00:51:16;;;;;;;43.05;26.27;;;;;;;12.50;100.00;99478.65;1672109;85;21128;-67
2021/09/10 00:53:43;;;;;;;41.80;25.82;;;;;;;12.45;100.00;99473.84;1692311;84;20950;-64
2021/09/10 00:56:12;;;;;;;39.40;23.27;;;;;;;12.41;100.00;99477.41;1692182;84;20923;-65
2021/09/10 00:58:40;;;;;;;33.23;20.88;;;;;;;12.37;100.00;99479.20;1692384;84;21435;-66
2021/09/10 01:01:08;;;;;;;24.00;18.70;;;;;;;12.32;100.00;99478.36;1692130;84;20883;-65
2021/09/10 01:03:36;;;;;;;29.55;18.23;;;;;;;12.29;100.00;99475.70;1692424;84;21038;-66
2021/09/10 01:06:04;;;;;;;28.38;18.95;;;;;;;12.26;100.00;99476.61;1692057;84;20892;-66
2021/09/10 01:08:33;;;;;;;29.12;19.23;;;;;;;12.23;100.00;99475.31;1692169;84;21477;-66
2021/09/10 01:11:03;;;;;;;34.13;20.02;;;;;;;12.20;100.00;99468.72;1692055;84;20987;-66
2021/09/10 01:13:31;;;;;;;33.13;21.10;;;;;;;12.17;100.00;99474.48;1692094;84;21029;-66
2021/09/10 01:16:01;;;;;;;32.90;20.05;;;;;;;12.14;100.00;99478.02;1692114;84;21573;-66
2021/09/10 01:18:30;;;;;;;29.75;19.70;;;;;;;12.12;100.00;99472.31;1692014;84;21426;-66
2021/09/10 01:20:57;;;;;;;34.35;20.20;;;;;;;12.09;100.00;99471.02;1692371;84;20938;-66
2021/09/10 01:23:25;;;;;;;31.20;19.15;;;;;;;12.07;100.00;99471.47;1692043;84;21423;-66
2021/09/10 01:25:53;;;;;;;29.02;19.12;;;;;;;12.04;100.00;99472.81;1692404;84;20946;-66
2021/09/10 01:28:22;;;;;;;28.98;19.42;;;;;;;12.01;100.00;99476.36;1692173;84;21863;-67
2021/09/10 01:30:50;;;;;;;29.95;18.90;;;;;;;11.96;100.00;99468.91;1692237;84;20914;-66
2021/09/10 01:33:19;;;;;;;28.87;19.37;;;;;;;11.91;100.00;99470.25;1692122;84;21481;-67
2021/09/10 01:35:47;;;;;;;27.37;17.65;;;;;;;11.90;100.00;99464.53;1692290;84;20899;-67
2021/09/10 01:38:15;;;;;;;29.20;17.85;;;;;;;11.88;100.00;99463.66;1692076;84;20955;-66
2021/09/10 01:40:43;;;;;;;24.67;16.97;;;;;;;11.89;100.00;99463.22;1692387;84;21069;-66
2021/09/10 01:43:12;;;;;;;27.42;16.55;;;;;;;11.88;100.00;99458.83;1695194;84;20883;-66
2021/09/10 01:45:41;;;;;;;27.00;17.73;;;;;;;11.86;100.00;99462.80;1696590;84;20954;-66
2021/09/10 01:48:10;;;;;;;26.65;17.15;;;;;;;11.84;100.00;99463.69;1696573;84;21450;-67
2021/09/10 01:50:40;;;;;;;41.15;19.40;;;;;;;11.79;100.00;99461.05;1696805;84;21447;-66
2021/09/10 01:53:08;;;;;;;31.35;19.62;;;;;;;11.77;100.00;99468.52;1696557;84;21550;-66
2021/09/10 01:55:37;;;;;;;38.55;20.15;;;;;;;11.72;100.00;99467.22;1696761;84;20942;-66
2021/09/10 01:58:05;;;;;;;34.98;19.67;;;;;;;11.68;100.00;99467.69;1696608;84;21577;-66
2021/09/10 02:00:36;;;;;;;31.10;19.70;;;;;;;11.65;100.00;99472.11;1696624;84;21636;-65
2021/09/10 02:03:05;;;;;;;35.80;19.20;;;;;;;11.61;100.00;99470.37;1696586;84;20950;-66
2021/09/10 02:05:33;;;;;;;32.50;18.45;;;;;;;11.55;100.00;99469.08;1696579;84;21151;-66
2021/09/10 02:08:03;;;;;;;26.40;17.60;;;;;;;11.49;100.00;99470.43;1696572;84;21406;-66
2021/09/10 02:10:31;;;;;;;26.62;16.97;;;;;;;11.44;100.00;99469.58;1696535;84;20979;-65
2021/09/10 02:13:00;;;;;;;23.27;15.90;;;;;;;11.38;100.00;99465.20;1696513;84;20879;-66
2021/09/10 02:15:28;;;;;;;26.52;17.73;;;;;;;11.32;100.00;99466.52;1696566;84;21506;-66
2021/09/10 02:17:58;;;;;;;27.85;18.55;;;;;;;11.31;100.00;99473.56;1696526;84;21433;-66
2021/09/10 02:20:26;;;;;;;29.30;18.15;;;;;;;11.28;100.00;99468.73;1696820;84;20971;-67
2021/09/10 02:22:55;;;;;;;32.75;19.50;;;;;;;11.24;100.00;99462.58;1696566;84;20951;-66
2021/09/10 02:25:24;;;;;;;26.37;17.27;;;;;;;11.21;100.00;99461.27;1696845;84;21019;-65
2021/09/10 02:27:52;;;;;;;26.17;17.37;;;;;;;11.18;100.00;99457.77;1696601;84;20947;-65
2021/09/10 02:30:21;;;;;;;28.27;16.35;;;;;;;11.14;100.00;99454.70;1696769;84;20883;-65
2021/09/10 02:32:50;;;;;;;27.82;17.23;;;;;;;11.09;100.00;99460.00;1696500;84;21482;-66
2021/09/10 02:35:19;;;;;;;27.82;17.80;;;;;;;11.05;100.00;99459.58;1696880;84;21442;-66
2021/09/10 02:37:47;;;;;;;29.95;18.12;;;;;;;11.02;100.00;99459.14;1696545;84;20951;-65
2021/09/10 02:40:17;;;;;;;26.57;16.48;;;;;;;11.01;100.00;99465.30;1696833;84;20875;-65
2021/09/10 02:42:46;;;;;;;27.30;16.67;;;;;;;10.99;100.00;99464.88;1691496;84;21941;-66
2021/09/10 02:45:15;;;;;;;26.25;17.57;;;;;;;11.01;100.00;99467.06;1681386;85;21447;-66
2021/09/10 02:47:44;;;;;;;29.20;17.42;;;;;;;10.99;100.00;99460.91;1681440;84;21514;-65
2021/09/10 02:50:13;;;;;;;28.83;17.30;;;;;;;10.97;100.00;99457.40;1681401;85;21542;-65
2021/09/10 02:52:43;;;;;;;33.80;17.82;;;;;;;10.95;100.00;99457.84;1681663;84;21434;-66
2021/09/10 02:55:12;;;;;;;35.03;19.15;;;;;;;10.93;100.00;99459.17;1681515;84;21498;-66
2021/09/10 02:57:42;;;;;;;26.93;17.77;;;;;;;10.92;100.00;99458.73;1681449;84;21576;-65
2021/09/10 03:00:11;;;;;;;30.32;18.17;;;;;;;10.91;100.00;99460.05;1681632;84;20908;-65
2021/09/10 03:02:41;;;;;;;29.32;17.57;;;;;;;10.89;100.00;99455.22;1681391;84;21003;-65
2021/09/10 03:05:10;;;;;;;28.92;16.65;;;;;;;10.87;100.00;99457.84;1681676;84;20919;-67
2021/09/10 03:07:39;;;;;;;35.33;15.95;;;;;;;10.85;100.00;99460.92;1681424;84;21391;-65
2021/09/10 03:10:09;;;;;;;50.10;17.92;;;;;;;10.84;100.00;99459.16;1681577;84;21497;-65
2021/09/10 03:12:39;;;;;;;35.75;18.00;;;;;;;10.86;100.00;99460.48;1681449;84;21499;-63
2021/09/10 03:15:11;;;;;;;30.97;17.60;;;;;;;10.86;100.00;99460.48;1681598;85;20939;-66
2021/09/10 03:17:39;;;;;;;29.10;16.55;;;;;;;10.86;100.00;99457.39;1681451;84;20987;-66
2021/09/10 03:20:08;;;;;;;32.45;17.30;;;;;;;10.86;100.00;99456.08;1681618;84;21080;-65
2021/09/10 03:22:37;;;;;;;30.40;18.27;;;;;;;10.88;100.00;99459.63;1681580;84;20906;-66
2021/09/10 03:25:06;;;;;;;27.42;17.87;;;;;;;10.91;100.00;99465.34;1681423;85;20960;-65
2021/09/10 03:27:35;;;;;;;38.08;18.15;;;;;;;10.92;100.00;99461.81;1681706;84;20915;-66
2021/09/10 03:30:06;;;;;;;46.00;17.20;;;;;;;10.92;100.00;99459.17;1681422;84;20960;-65
2021/09/10 03:32:33;;;;;;;35.55;17.77;;;;;;;10.93;100.00;99458.29;1681422;84;21116;-65
2021/09/10 03:35:00;;;;;;;31.37;17.92;;;;;;;10.96;100.00;99461.80;1681340;85;20911;-66
2021/09/10 03:37:29;;;;;;;38.20;17.98;;;;;;;11.00;100.00;99467.95;1681356;84;20911;-66
2021/09/10 03:39:57;;;;;;;30.10;18.12;;;;;;;11.00;100.00;99474.11;1681383;84;20888;-66
2021/09/10 03:42:25;;;;;;;32.05;17.65;;;;;;;11.00;100.00;99467.95;1681441;84;20943;-64
2021/09/10 03:44:55;;;;;;;32.60;18.00;;;;;;;10.99;100.00;99471.47;1681370;84;20884;-65
2021/09/10 03:47:23;;;;;;;50.63;18.05;;;;;;;10.96;100.00;99476.76;1681341;84;20927;-65
2021/09/10 03:49:51;;;;;;;33.33;17.30;;;;;;;10.94;100.00;99471.92;1681456;84;21008;-65
2021/09/10 03:52:20;;;;;;;28.55;16.65;;;;;;;10.92;100.00;99476.33;1681323;84;20954;-62
2021/09/10 03:54:49;;;;;;;32.90;18.67;;;;;;;10.89;100.00;99478.98;1681678;85;21509;-63
2021/09/10 03:57:18;;;;;;;35.00;17.62;;;;;;;10.87;100.00;99482.91;1681386;84;21169;-63
2021/09/10 03:59:46;;;;;;;29.52;17.48;;;;;;;10.86;100.00;99486.42;1681595;85;21451;-63
2021/09/10 04:02:16;;;;;;;30.75;17.65;;;;;;;10.88;100.00;99483.37;1681390;84;21474;-68
2021/09/10 04:04:45;;;;;;;29.37;16.02;;;;;;;10.91;100.00;99491.73;1681588;84;21007;-67
2021/09/10 04:07:14;;;;;;;29.95;18.30;;;;;;;10.91;100.00;99490.41;1681626;84;20975;-71
2021/09/10 04:09:43;;;;;;;32.17;17.45;;;;;;;10.91;100.00;99486.01;1681823;85;21119;-71
2021/09/10 04:12:14;;;;;;;29.50;18.20;;;;;;;10.93;100.00;99483.37;1681689;84;21471;-70
2021/09/10 04:14:42;;;;;;;31.93;18.00;;;;;;;10.95;100.00;99485.13;1681707;84;20884;-69
2021/09/10 04:17:10;;;;;;;55.03;19.92;;;;;;;10.97;100.00;99487.75;1680649;84;21454;-69
2021/09/10 04:19:39;;;;;;;35.83;18.35;;;;;;;10.99;100.00;99490.83;1676111;84;21459;-70
2021/09/10 04:22:07;;;;;;;30.77;17.77;;;;;;;11.01;100.00;99489.06;1653256;85;21973;-70
2021/09/10 04:24:37;;;;;;;39.95;18.30;;;;;;;11.04;100.00;99491.70;1640956;86;21454;-69
2021/09/10 04:27:04;;;;;;;31.07;18.67;;;;;;;11.08;100.00;99489.92;1661790;84;20935;-69
2021/09/10 04:29:32;;;;;;;40.05;19.48;;;;;;;11.13;100.00;99493.87;1664640;85;20935;-70
2021/09/10 04:32:00;;;;;;;33.55;17.90;;;;;;;11.15;100.00;99495.63;1661390;85;21580;-70
2021/09/10 04:34:28;;;;;;;35.08;18.30;;;;;;;11.17;100.00;99496.50;1665943;84;21890;-70
2021/09/10 04:36:58;;;;;;;37.90;17.67;;;;;;;11.19;100.00;99493.85;1656267;84;20936;-70
2021/09/10 04:39:27;;;;;;;43.52;19.65;;;;;;;11.22;100.00;99500.44;1661323;85;21023;-70
2021/09/10 04:41:55;;;;;;;51.23;18.73;;;;;;;11.25;100.00;99497.34;1674008;85;21503;-71
2021/09/10 04:44:24;;;;;;;31.97;16.65;;;;;;;11.28;100.00;99501.74;1654866;85;21560;-70
2021/09/10 04:46:54;;;;;;;27.22;16.70;;;;;;;11.34;100.00;99504.36;1664579;85;21510;-69
2021/09/10 04:49:22;;;;;;;25.82;17.12;;;;;;;11.42;100.00;99502.60;1664512;85;20928;-69
2021/09/10 04:51:54;;;;;;;25.12;16.87;;;;;;;11.49;100.00;99504.77;1665112;85;20983;-70
2021/09/10 04:54:23;;;;;;;25.02;16.62;;;;;;;11.55;100.00;99495.50;1661181;85;20980;-70
2021/09/10 04:56:53;;;;;;;26.55;17.10;;;;;;;11.60;100.00;99499.00;1635570;86;20980;-70
2021/09/10 04:59:24;;;;;;;25.30;16.15;;;;;;;11.66;100.00;99491.92;1666986;85;21102;-70
2021/09/10 05:01:54;;;;;;;26.80;15.75;;;;;;;11.73;100.00;99499.81;1652770;85;20920;-70
2021/09/10 05:04:28;;;;;;;24.35;15.72;;;;;;;11.81;100.00;99495.40;1657213;85;21068;-70
2021/09/10 05:06:56;;;;;;;31.05;17.10;;;;;;;11.90;100.00;99498.02;1663657;85;21016;-71
2021/09/10 05:09:25;;;;;;;32.17;17.73;;;;;;;11.99;100.00;99503.25;1664814;85;21526;-71
2021/09/10 05:11:54;;;;;;;35.00;16.70;;;;;;;12.07;100.00;99497.47;1662466;86;21418;-71
2021/09/10 05:14:26;;;;;;;27.90;16.05;;;;;;;12.14;100.00;99497.86;1659997;86;20923;-71
2021/09/10 05:16:55;;;;;;;25.57;16.37;;;;;;;12.23;100.00;99504.41;1664500;85;21451;-71
2021/09/10 05:19:25;;;;;;;20.72;14.05;;;;;;;12.31;100.00;99505.70;1665912;85;21438;-71
2021/09/10 05:21:54;;;;;;;29.57;14.58;;;;;;;12.43;100.00;99511.34;1672137;85;21020;-71
2021/09/10 05:24:23;;;;;;;27.70;15.80;;;;;;;12.54;100.00;99503.75;1679232;84;21047;-71
2021/09/10 05:26:51;;;;;;;30.82;16.42;;;;;;;12.67;100.00;99510.25;1679231;85;21437;-70
2021/09/10 05:29:20;;;;;;;27.25;16.87;;;;;;;12.77;100.00;99509.28;1679342;85;21432;-69
2021/09/10 05:31:49;;;;;;;29.07;16.37;;;;;;;12.87;100.00;99511.86;1665685;84;21454;-70
2021/09/10 05:34:17;;;;;;;26.02;16.27;;;;;;;12.97;100.00;99515.73;1668780;85;20896;-70
2021/09/10 05:36:45;;;;;;;25.17;16.50;;;;;;;13.05;100.00;99509.91;1652737;85;21084;-70
2021/09/10 05:39:13;;;;;;;26.35;16.97;;;;;;;13.14;100.00;99511.14;1652938;85;20960;-63
2021/09/10 05:41:41;;;;;;;30.23;16.87;;;;;;;13.27;100.00;99514.16;1652711;85;20983;-63
2021/09/10 05:44:09;;;;;;;50.98;16.95;;;;;;;13.36;100.00;99511.84;1660685;84;20938;-65
2021/09/10 05:46:36;;;;;;;25.57;17.35;;;;;;;13.46;100.00;99509.06;1663005;85;21451;-62
2021/09/10 05:49:06;;;;;;;40.70;18.07;;;;;;;13.58;100.00;99507.16;1662808;86;21095;-61
2021/09/10 05:51:34;;;;;;;30.82;17.80;;;;;;;13.69;100.00;99510.09;1662882;85;20907;-62
2021/09/10 05:54:02;;;;;;;32.00;17.25;;;;;;;13.82;100.00;99510.84;1662722;85;20928;-63
2021/09/10 05:56:32;;;;;;;31.20;17.52;;;;;;;13.97;100.00;99508.42;1662932;85;20963;-63
2021/09/10 05:59:00;;;;;;;32.58;17.10;;;;;;;14.10;100.00;99510.88;1662747;86;21042;-62
2021/09/10 06:01:30;;;;;;;27.90;15.85;;;;;;;14.24;100.00;99505.40;1675126;84;21099;-62
2021/09/10 06:04:00;;;;;;;26.02;16.12;;;;;;;14.39;100.00;99510.47;1699906;84;20895;-62
2021/09/10 06:06:30;;;;;;;23.02;16.67;;;;;;;14.56;100.00;99508.02;1702085;84;20911;-62
2021/09/10 06:08:57;;;;;;;30.30;16.02;;;;;;;14.72;100.00;99506.89;1687819;84;21395;-62
2021/09/10 06:11:26;;;;;;;28.95;16.70;;;;;;;14.88;100.00;99508.83;1678589;85;20971;-63
2021/09/10 06:13:56;;;;;;;28.12;17.10;;;;;;;15.04;100.00;99512.50;1684098;84;21470;-63
2021/09/10 06:16:24;;;;;;;28.83;16.62;;;;;;;15.21;100.00;99512.67;1683629;84;20943;-63
2021/09/10 06:18:53;;;;;;;26.62;15.45;;;;;;;15.39;100.00;99512.31;1678877;84;21027;-63
2021/09/10 06:21:21;;;;;;;27.80;16.12;;;;;;;15.57;100.00;99507.07;1683985;85;20912;-62
2021/09/10 06:23:50;;;;;;;25.15;15.03;;;;;;;15.73;100.00;99508.11;1684414;84;21498;-62
2021/09/10 06:26:22;;;;;;;28.20;16.05;;;;;;;15.93;100.00;99512.13;1681957;84;21502;-62
2021/09/10 06:28:49;;;;;;;30.77;15.75;;;;;;;16.23;100.00;99506.13;1683392;84;21497;-63
2021/09/10 06:31:18;;;;;;;22.60;14.55;;;;;;;16.23;100.00;99506.13;1682209;85;21435;-63
2021/09/10 06:33:45;;;;;;;21.68;14.10;;;;;;;16.37;100.00;99508.47;1684722;84;20970;-63
2021/09/10 06:36:14;;;;;;;26.52;14.23;;;;;;;16.52;100.00;99505.43;1681484;84;20915;-63
2021/09/10 06:38:43;;;;;;;23.38;13.83;;;;;;;16.67;100.00;99505.58;1679589;85;21414;-62
2021/09/10 06:41:12;;;;;;;22.30;13.78;;;;;;;16.98;100.00;99498.98;1683849;84;20933;-63
2021/09/10 06:43:42;;;;;;;29.50;13.58;;;;;;;16.98;100.00;99498.98;1677122;84;20884;-62
2021/09/10 06:46:13;;;;;;;33.63;14.33;;;;;;;17.14;100.00;99499.02;1667492;85;20960;-62
2021/09/10 06:48:41;;;;;;;22.70;14.15;;;;;;;17.25;100.00;99492.94;1662805;85;21463;-69
2021/09/10 06:51:11;;;;;;;25.52;14.47;;;;;;;17.42;100.00;99488.46;1665416;84;20990;-66
2021/09/10 06:53:40;;;;;;;27.55;13.88;;;;;;;17.57;100.00;99492.05;1663320;85;21443;-65
2021/09/10 06:56:08;;;;;;;24.80;12.65;;;;;;;17.74;100.00;99492.05;1666209;85;21011;-65
2021/09/10 06:58:39;;;;;;;28.05;12.80;;;;;;;17.92;100.00;99498.17;1659461;85;21511;-64
2021/09/10 07:01:06;;;;;;;26.07;12.78;;;;;;;18.06;100.00;99497.31;1656578;85;21577;-64
2021/09/10 07:03:35;;;;;;;31.82;13.75;;;;;;;18.22;100.00;99501.25;1664780;85;20912;-64
2021/09/10 07:06:03;;;;;;;27.13;13.30;;;;;;;18.38;100.00;99502.97;1662173;85;20920;-64
2021/09/10 07:08:33;;;;;;;21.77;12.93;;;;;;;18.53;100.00;99497.62;1667400;85;20959;-67
2021/09/10 07:11:03;;;;;;;25.08;12.65;;;;;;;18.66;100.00;99498.99;1668504;84;20959;-60
2021/09/10 07:13:31;;;;;;;24.75;13.10;;;;;;;18.82;100.00;99506.03;1667202;85;21438;-60
2021/09/10 07:15:59;;;;;;;23.95;11.90;;;;;;;18.96;100.00;99502.91;1638777;86;21090;-61
2021/09/10 07:18:29;;;;;;;22.45;12.37;;;;;;;19.11;100.00;99502.38;1668487;85;20915;-61
2021/09/10 07:20:59;;;;;;;22.48;12.37;;;;;;;19.25;100.00;99500.09;1669127;85;20959;-61
2021/09/10 07:23:30;;;;;;;25.00;12.82;;;;;;;19.39;100.00;99498.25;1672782;84;20968;-61
2021/09/10 07:26:00;;;;;;;21.77;12.70;;;;;;;19.54;100.00;99498.22;1665591;84;20864;-61
2021/09/10 07:28:27;;;;;;;20.70;11.57;;;;;;;19.67;100.00;99498.16;1664572;85;21272;-61
2021/09/10 07:30:54;;;;;;;22.37;11.50;;;;;;;19.81;100.00;99501.19;1662097;85;20983;-61
2021/09/10 07:33:22;;;;;;;19.52;11.88;;;;;;;19.93;100.00;99499.41;1665123;85;20975;-61
2021/09/10 07:35:50;;;;;;;20.12;10.95;;;;;;;20.07;100.00;99498.41;1631816;86;20984;-62
2021/09/10 07:38:19;;;;;;;19.85;10.50;;;;;;;20.24;100.00;99499.55;1664665;84;20978;-62
2021/09/10 07:40:49;;;;;;;20.65;11.40;;;;;;;20.39;100.00;99502.98;1664145;85;22840;-67
2021/09/10 07:43:17;;;;;;;21.50;11.18;;;;;;;20.56;100.00;99497.83;1666221;84;21640;-62
2021/09/10 07:45:46;;;;;;;19.02;11.08;;;;;;;20.70;100.00;99499.47;1665132;85;21012;-62
2021/09/10 07:48:14;;;;;;;16.30;10.28;;;;;;;20.85;100.00;99492.62;1659318;84;20947;-62
2021/09/10 07:50:44;;;;;;;22.37;10.45;;;;;;;20.99;100.00;99496.05;1663973;84;21019;-67
2021/09/10 07:53:12;;;;;;;15.80;9.73;;;;;;;21.15;100.00;99489.08;1664711;84;21043;-64
2021/09/10 07:55:40;;;;;;;21.95;10.53;;;;;;;21.29;100.00;99493.91;1666799;84;20948;-64
2021/09/10 07:58:08;;;;;;;20.92;10.18;;;;;;;21.40;100.00;99482.69;1649946;85;20999;-64
2021/09/10 08:00:42;;;;;;;14.28;9.35;;;;;;;21.54;100.00;99479.78;1639077;85;20904;-63
2021/09/10 08:03:11;;;;;;;16.77;8.90;;;;;;;21.69;100.00;99478.20;1636654;86;21455;-62
2021/09/10 08:05:40;;;;;;;17.30;9.40;;;;;;;21.85;100.00;99485.98;1659978;85;21044;-63
2021/09/10 08:08:10;;;;;;;13.93;8.55;;;;;;;22.00;100.00;99479.88;1634286;87;20915;-63
2021/09/10 08:10:39;;;;;;;15.78;8.88;;;;;;;22.16;100.00;99482.73;1636331;86;20921;-59
2021/09/10 08:13:06;;;;;;;18.23;9.45;;;;;;;22.32;100.00;99484.23;1639314;86;20952;-59
2021/09/10 08:15:36;;;;;;;15.80;8.50;;;;;;;22.47;100.00;99474.55;1639264;86;21482;-60
2021/09/10 08:18:07;;;;;;;15.75;7.35;;;;;;;22.60;100.00;99477.89;1639328;86;21408;-59
2021/09/10 08:20:37;;;;;;;12.93;7.65;;;;;;;22.74;95.97;99473.67;1613470;88;21467;-60
2021/09/10 08:23:06;;;;;;;14.23;8.55;;;;;;;22.85;92.69;99472.69;1620148;88;21471;-59
2021/09/10 08:25:34;;;;;;;17.95;8.13;;;;;;;22.99;93.59;99473.31;1620024;87;20932;-60
2021/09/10 08:28:05;;;;;;;14.63;8.05;;;;;;;23.14;91.25;99465.31;1617688;87;21494;-60
2021/09/10 08:30:35;;;;;;;11.30;7.15;;;;;;;23.29;89.97;99462.32;1606864;88;23072;-60
2021/09/10 08:33:02;;;;;;;11.75;7.42;;;;;;;23.43;86.96;99462.45;1613284;87;20931;-59
2021/09/10 08:35:31;;;;;;;12.13;7.22;;;;;;;23.58;85.30;99459.91;1614031;87;21546;-61
2021/09/10 08:37:59;;;;;;;11.88;7.17;;;;;;;23.72;83.71;99457.38;1625109;88;21474;-61
2021/09/10 08:40:27;;;;;;;12.53;7.00;;;;;;;23.83;76.50;99454.95;1629789;88;20932;-61
2021/09/10 08:42:55;;;;;;;14.55;6.78;;;;;;;23.96;74.66;99453.79;1614844;88;21103;-61
2021/09/10 08:45:26;;;;;;;14.53;7.53;;;;;;;24.06;71.72;99454.53;1661586;85;20907;-63
2021/09/10 08:47:55;;;;;;;12.25;7.00;;;;;;;24.14;67.10;99450.09;1662715;85;20936;-62
2021/09/10 08:50:23;;;;;;;9.90;6.00;;;;;;;24.27;65.54;99448.91;1665386;85;21451;-61
2021/09/10 08:52:52;;;;;;;12.00;6.40;;;;;;;24.41;64.89;99440.44;1664366;85;20900;-62
2021/09/10 08:55:20;;;;;;;10.00;6.37;;;;;;;24.57;63.53;99442.24;1661635;84;22104;-64
2021/09/10 08:57:50;;;;;;;14.13;6.03;;;;;;;24.70;62.54;99438.77;1664145;84;21088;-63
2021/09/10 09:00:28;;;;;;;10.95;5.45;;;;;;;24.83;58.60;99436.67;1663540;85;21047;-63
2021/09/10 09:03:01;;;;;;;10.53;5.58;;;;;;;24.90;56.25;99428.60;1674783;85;20971;-64
2021/09/10 09:05:30;;;;;;;29.23;6.78;;;;;;;25.02;55.50;99423.84;1633061;87;21562;-65
2021/09/10 09:08:09;;;;;;;13.53;5.58;;;;;;;25.15;54.91;99421.30;1663327;86;21120;-62
2021/09/10 09:11:03;;;;;;;8.55;5.30;;;;;;;25.29;53.97;99426.22;1675342;84;20916;-62
2021/09/10 09:13:40;;;;;;;14.03;5.95;;;;;;;25.43;53.24;99421.31;1672848;84;20932;-61
2021/09/10 09:16:26;;;;;;;9.83;5.85;;;;;;;25.59;52.20;99418.06;1671502;85;21007;-61
2021/09/10 09:18:58;;;;;;;10.35;4.95;;;;;;;25.73;51.29;99422.14;1680704;84;21481;-61
2021/09/10 09:21:34;;;;;;;27.80;9.85;;;;;;;25.88;50.79;99418.92;1694498;84;21044;-61
2021/09/10 09:24:21;;;;;;;15.00;8.50;;;;;;;26.01;49.30;99422.60;1664004;84;20943;-60
2021/09/10 09:26:51;;;;;;;9.38;5.35;;;;;;;26.13;47.78;99416.88;1663964;84;20923;-60
2021/09/10 09:29:22;;;;;;;8.83;5.47;;;;;;;26.23;46.86;99415.30;1661109;85;21593;-61
2021/09/10 09:31:59;;;;;;;10.23;5.17;;;;;;;26.34;46.04;99420.03;1651754;85;21217;-61
2021/09/10 09:34:45;;;;;;;11.12;5.20;;;;;;;26.45;45.09;99415.25;1656605;85;21103;-60
2021/09/10 09:37:18;;;;;;;7.58;4.45;;;;;;;26.55;44.84;99417.75;1664574;84;20915;-61
2021/09/10 09:39:57;;;;;;;11.18;5.10;;;;;;;26.68;44.10;99411.02;1685422;84;21380;-60
2021/09/10 09:42:29;;;;;;;15.90;4.22;;;;;;;26.79;43.68;99403.91;1689584;84;20909;-64
2021/09/10 09:45:11;;;;;;;12.68;4.28;;;;;;;26.90;43.05;99399.10;1690404;84;21030;-62
2021/09/10 09:47:42;;;;;;;16.02;5.33;;;;;;;27.01;42.10;99403.84;1680756;84;20934;-63
2021/09/10 09:50:16;;;;;;;15.85;5.35;;;;;;;27.11;41.26;99396.31;1650065;85;20939;-62
2021/09/10 09:52:48;;;;;;;8.60;4.72;;;;;;;27.20;40.61;99401.57;1664775;85;21392;-62
2021/09/10 09:55:15;;;;;;;14.23;4.67;;;;;;;27.29;39.90;99400.44;1681820;84;20983;-61
2021/09/10 09:57:43;;;;;;;10.68;4.60;;;;;;;27.37;38.87;99397.18;1651830;85;21486;-62
2021/09/10 10:00:11;;;;;;;7.90;4.47;;;;;;;27.45;38.76;99388.05;1652622;85;21084;-62
2021/09/10 10:02:39;;;;;;;9.63;4.55;;;;;;;27.54;38.88;99391.45;1652380;85;20964;-62
2021/09/10 10:05:08;;;;;;;9.38;4.17;;;;;;;27.65;38.48;99396.62;1651019;85;20880;-62
2021/09/10 10:07:40;;;;;;;11.45;5.10;;;;;;;27.71;37.96;99401.10;1635648;86;20940;-63
2021/09/10 10:10:11;;;;;;;11.03;5.10;;;;;;;27.79;37.29;99400.55;1625806;86;20907;-61
2021/09/10 10:12:40;;;;;;;13.95;4.62;;;;;;;27.85;36.25;99393.31;1617393;87;21467;-62
2021/09/10 10:15:25;;;;;;;9.78;4.25;;;;;;;27.92;36.36;99386.98;1662745;85;20872;-62
2021/09/10 10:17:54;;;;;;;13.90;4.83;;;;;;;28.00;36.13;99384.58;1639582;86;20894;-62
2021/09/10 10:20:49;;;;;;;11.60;5.00;;;;;;;28.08;36.08;99382.16;1669638;84;20951;-62
2021/09/10 10:23:49;;;;;;;10.18;4.85;;;;;;;28.16;35.62;99377.03;1676750;83;21415;-63
2021/09/10 10:26:38;;;;;;;13.22;4.78;;;;;;;28.26;35.75;99379.95;1674478;83;21501;-62
2021/09/10 10:29:16;;;;;;;13.58;4.53;;;;;;;28.34;35.63;99378.38;1671562;84;20922;-61
2021/09/10 10:32:00;;;;;;;10.32;5.05;;;;;;;28.40;35.04;99377.95;1686540;84;21410;-62
2021/09/10 10:34:28;;;;;;;13.30;4.80;;;;;;;28.48;34.74;99371.94;1676485;85;21530;-62
2021/09/10 10:36:58;;;;;;;10.38;5.12;;;;;;;28.52;34.04;99375.66;1678617;85;20982;-62
2021/09/10 10:39:31;;;;;;;12.65;5.03;;;;;;;28.58;33.90;99369.39;1677850;84;21081;-62
2021/09/10 10:42:03;;;;;;;10.18;4.92;;;;;;;28.63;33.10;99368.05;1677894;85;20986;-62
2021/09/10 10:44:37;;;;;;;9.43;4.80;;;;;;;28.65;33.14;99364.73;1641510;85;20892;-63
2021/09/10 10:47:17;;;;;;;7.85;4.47;;;;;;;28.69;32.68;99364.86;1664405;85;20959;-64
2021/09/10 10:49:49;;;;;;;14.35;5.08;;;;;;;28.75;33.12;99358.95;1668713;85;21013;-63
2021/09/10 10:52:36;;;;;;;;;;;;;;;28.81;32.62;99358.48;1668592;85;21149;-63
2021/09/10 10:55:32;;;;;;;16.50;7.47;;;;;;;28.86;32.37;99350.53;1647508;85;20610;-61
2021/09/10 10:58:25;;;;;;;31.02;14.98;;;;;;;28.92;31.77;99352.77;1663199;83;20948;-65
2021/09/10 11:01:03;;;;;;;20.35;7.70;;;;;;;28.98;32.05;99350.92;1669389;85;21451;-64
2021/09/10 11:03:37;;;;;;;33.25;8.50;;;;;;;29.05;31.71;99347.60;1668567;85;21604;-64
2021/09/10 11:06:27;;;;;;;32.90;7.50;;;;;;;29.13;31.34;99340.20;1657774;85;20976;-63
2021/09/10 11:08:56;;;;;;;19.55;6.60;;;;;;;29.19;31.29;99335.64;1619184;86;20904;-63
2021/09/10 11:11:26;;;;;;;39.23;7.53;;;;;;;29.28;31.27;99341.70;1660936;85;21427;-62
2021/09/10 11:13:55;;;;;;;37.23;8.45;;;;;;;29.31;31.00;99327.86;1668728;85;21489;-63
2021/09/10 11:16:29;;;;;;;40.12;7.40;;;;;;;29.38;31.18;99330.98;1669873;85;20976;-62
2021/09/10 11:18:58;;;;;;;34.03;8.43;;;;;;;29.43;31.03;99324.68;1676969;85;20930;-62
2021/09/10 11:21:29;;;;;;;20.02;6.30;;;;;;;29.50;30.65;99330.02;1676250;85;20985;-62
2021/09/10 11:24:00;;;;;;;33.60;7.55;;;;;;;29.55;30.09;99322.85;1676018;85;21463;-62
2021/09/10 11:26:33;;;;;;;39.33;9.18;;;;;;;29.58;29.96;99318.03;1676149;85;20942;-62
2021/09/10 11:29:09;;;;;;;54.70;9.88;;;;;;;29.60;29.30;99315.19;1676879;85;20985;-62